Schedule Details

Flight Number: ASX328X
Departure: Corfu International Airport (LGKR) at 15:40Z
Arrival: Gdansk im. Lecha Walesy (EPGD) at 18:20Z
Route: YNN UN731 BITLA DCT LONTA UM749 BGD UM173 PARAK DCT LITKU DCT BABKO Z169 POLON N133 IRLUN

Weather Information
LGKR 272250Z VRB03KT 9999 FEW025 21/18 Q1015 NOSIG
EPGD 272230Z 06005KT 030V090 CAVOK 16/15 Q1025

Schedule Frequency

Route Map